MyTimes logo

TIMES

Webb Imagery

12/02/2006
Channel Challenge
550m Swim / 2.0km Run

(Click on competitor name to view personalised results)

Name
Race #
Category
Time
(h:mm:ss)
Avg Speed
km/hr
OAll
Place
Cat
Place
GEMMELL Kris#206Senior Male0:11:0619:12:00 11
NOBLE Gavin#205Senior Male0:11:392:24:00 22
COOPER Brett#136Senior Male0:11:422:24:00 33
RIX Joshua#99Senior Male0:11:5819:12:00 44
HUNTER Hamish#127Senior Male0:12:277:12:00 55
CARLSON Robert#55Senior Male0:12:392:24:00 66
CAMPBELL Bradley#180Senior Male0:12:4921:36:00 77
LANG Kerry#387Senior Female0:12:5519:12:00 81
SHEPPARD Sam#84Senior Male0:13:0616:48:00 98
HOCKING Chris#77Senior Male0:13:1314:24:00 109
BATTYE Trent#82Senior Male0:13:1912:00:00 1110
ROCK Anthony#139Senior Male0:13:229:36:00 1211
SMITH Ryan#508Junior Male0:13:327:12:00 131
VELLIN Marc#22Senior Male0:13:364:48:00 1412
EVANS Brad#6Senior Male0:13:364:48:00 1513
KISS Ryan#70Senior Male0:13:452:24:00 1614
GREEN David#98Senior Male0:13:462:24:00 1715
WRIGHT Benjamin#144Senior Male0:13:502:24:00 1816
YUSKO Daniel#112Senior Male0:13:530:00:00 1917
JOUSTRA Chris#58740-49 Male0:14:0021:36:00 201
MACINDOE Cameron#83Senior Male0:14:0321:36:00 2118
HENTSC HEL Vanessa#406Senior Female0:14:0421:36:00 222
PHILLIPS Tyler#610Junior Male0:14:0621:36:00 232
MARTIN Patrick#140Senior Male0:14:0919:12:00 2419
WALKER Justin#81Senior Male0:14:1119:12:00 2520
PAGE Tiler#233Senior Male0:14:1319:12:00 2621
FLEISNER Rob#59140-49 Male0:14:1716:48:00 272
CROFT Greg#64440-49 Male0:14:2814:24:00 283
AITKEN Harry#506Junior Male0:14:2814:24:00 293
BUTT Chloe#323Junior Female0:14:2914:24:00 301
BARNES Trevor#151Senior Male0:14:3212:00:00 3122
MOUNSEY Mark-Barne#52940-49 Male0:14:409:36:00 324
GRAHAME Sarah#424Senior Female0:14:477:12:00 333
CROGH Chris#194Senior Male0:14:517:12:00 3423
TAYLOR Jake#214Senior Male0:14:517:12:00 3524
POLIZZI Alexander#594Junior Male0:14:517:12:00 364
GEORGE Mark#65940-49 Male0:14:527:12:00 375
RAINEY Peter#52540-49 Male0:14:574:48:00 386
SPEAKMAN David#204Senior Male0:14:584:48:00 3925
MC LEAN Michael#128Senior Male0:15:024:48:00 4026
RICKARDS Antony#49Senior Male0:15:044:48:00 4127
COWELL Darren#51440-49 Male0:15:044:48:00 427
GORDON Michael#552Male 50+0:15:102:24:00 431
TILLEY Justin#121Senior Male0:15:132:24:00 4428
CARTER Lachlan#113Senior Male0:15:140:00:00 4529
KERR Lewis#626Junior Male0:15:140:00:00 465
AUDITORE Chris#222Senior Male0:15:150:00:00 4730
KINGSLEY Caitlin#326Junior Female0:15:160:00:00 482
HANLEY Philip#197Male 50+0:15:220:00:00 492
DALLINGER Chris#184Senior Male0:15:2321:36:00 5031
OBERHOFER Helen#380Senior Female0:15:2421:36:00 514
ROLLAND Thierry#63140-49 Male0:15:2521:36:00 528
DESSENT Tiger#23440-49 Male0:15:2721:36:00 539
NEWTON Rodney#57340-49 Male0:15:2921:36:00 5410
YUSKO Bill#604Male 50+0:15:3021:36:00 553
FRANKLIN Brett#118Senior Male0:15:3219:12:00 5632
HANLEY Tim#227Senior Male0:15:3419:12:00 5733
HOLLAS Andrew#63840-49 Male0:15:3519:12:00 5811
CORBETT Jim#64840-49 Male0:15:3619:12:00 5912
CAPLE Alex#145Senior Male0:15:3819:12:00 6034
FULLERTON Ross#109Senior Male0:15:3819:12:00 6135
BURNS Robert#571Male 50+0:15:4316:48:00 624
TOMICH Lane#157Senior Male0:15:4716:48:00 6336
NICHOLSON Steve#138Senior Male0:15:4716:48:00 6437
HUMPHREY Kirk#122Senior Male0:15:4916:48:00 6538
AXFORD Brad#131Senior Male0:15:5016:48:00 6639
HEWETT Noel#51740-49 Male0:15:5016:48:00 6713
WILSON Eddy#12Senior Male0:15:5116:48:00 6840
COATS Callum#196Senior Male0:15:5314:24:00 6941
BAGULEY Malcolm#78Senior Male0:15:5314:24:00 7042
DALLINGER Andrew#243Senior Male0:15:5614:24:00 7143
HUTCHISON Warwick#165Senior Male0:15:5914:24:00 7244
STEWART Alastair#669Junior Male0:15:5914:24:00 736
BARRETT Philip#45Senior Male0:16:0612:00:00 7445
SMITH Cameron#44Senior Male0:16:0912:00:00 7546
SEWELL Geoff#103Male 50+0:16:139:36:00 765
SLAVIN Gavin#231Senior Male0:16:159:36:00 7747
SMART Graham#173Senior Male0:16:169:36:00 7848
BUTTIFONT David#67440-49 Male0:16:169:36:00 7914
BROTZ Markus#9140-49 Male0:16:179:36:00 8015
FRIEDMAN Adrian#7Senior Male0:16:189:36:00 8149
WILLKINS Shaun#229Senior Male0:16:189:36:00 8250
MATTHEWS Jack#92Senior Male0:16:209:36:00 8351
WILKINS Darren#230Senior Male0:16:227:12:00 8452
ELVINS Mark#187Senior Male0:16:247:12:00 8553
HILL Stewart#162Senior Male0:16:257:12:00 8654
PALMER Dan#38Senior Male0:16:257:12:00 8755
INNES Chris#158Senior Male0:16:267:12:00 8856
BURGESS Aaron#179Senior Male0:16:267:12:00 8957
BURGESS Matt#181Senior Male0:16:307:12:00 9058
OKE Tim#667Junior Male0:16:307:12:00 917
LARDNER Scott#141Senior Male0:16:334:48:00 9259
MARSHALL Luke#177Senior Male0:16:334:48:00 9360
FETTERPLACE Kate#401Senior Female0:16:364:48:00 945
FISHER Kevin#9540-49 Male0:16:394:48:00 9516
MOORE Hayden#244Senior Male0:16:404:48:00 9661
STOCK Adam#582Junior Male0:16:404:48:00 978
SEWELL Chris#102Senior Male0:16:452:24:00 9862
STINGER Tim#232Senior Male0:16:472:24:00 9963
SMITH Michael#237Senior Male0:16:492:24:00 10064
CHAN Marty#155Senior Male0:16:492:24:00 10165
BASELL Laurence#47Senior Male0:16:502:24:00 10266
YATES Stuart#169Senior Male0:16:522:24:00 10367
THWAITES Craig#161Senior Male0:16:532:24:00 10468
WEIR Angus#219Senior Male0:16:542:24:00 10569
BINCH David#221Senior Male0:16:570:00:00 10670
O'CONNELL Sarah#411Senior Female0:16:570:00:00 1076
NORMAN Jeff#66340-49 Male0:16:580:00:00 10817
CHISHOLM Andy#88Senior Male0:17:000:00:00 10971
CROWE Susie#447Junior Female0:17:000:00:00 1103
KEADY Arran#192Senior Male0:17:010:00:00 11172
BROOMHILL Jason#637Junior Male0:17:010:00:00 1129
EVANS Bree#476Senior Female0:17:020:00:00 1137
NEALE Andrew#61Senior Male0:17:040:00:00 11473
DE JONG Brendan#178Senior Male0:17:050:00:00 11574
JOLLEY Ben#201Senior Male0:17:0621:36:00 11675
STEVENSON James#240Senior Male0:17:0721:36:00 11776
DICKSON Jack#658Junior Male0:17:0821:36:00 11810
PAGE Troy#672Junior Male0:17:0821:36:00 11911
PIROUET Nathan#130Senior Male0:17:0921:36:00 12077
BORN Daniel#507Junior Male0:17:0921:36:00 12112
BOND Marcus#29Senior Male0:17:1521:36:00 12278
O'CONNELL Chrissy#397Senior Female0:17:1521:36:00 1238
THORNE Oliver#40Senior Male0:17:1621:36:00 12479
JONES Cam#152Senior Male0:17:1621:36:00 12580
REID Craig#1Senior Male0:17:1721:36:00 12681
CANN Lara#332Senior Female0:17:1919:12:00 1279
CARGILL Sam#651Junior Male0:17:1919:12:00 12813
MADDEN David#42Senior Male0:17:2019:12:00 12982
SPORTON Chris#53240-49 Male0:17:2019:12:00 13018
DOWNIE Andrew#28Senior Male0:17:2219:12:00 13183
MOSELEY Rod#186Senior Male0:17:2219:12:00 13284
NICHOLSON James#137Senior Male0:17:2519:12:00 13385
O'ROURKE Mark#171Senior Male0:17:2719:12:00 13486
RIELLY Debbie#417Senior Female0:17:3116:48:00 13510
BAYLEY Matthew#147Senior Male0:17:4016:48:00 13687
SMYTH Shannon#217Senior Male0:17:4016:48:00 13788
FLEISNER Ben#9Senior Male0:17:4116:48:00 13889
JENKINS Mark#182Senior Male0:17:4116:48:00 13990
ALDERSON Allan#655Male 50+0:17:4116:48:00 1406
WILLOCKS Matthew#245Senior Male0:17:4214:24:00 14191
FLEISNER Paul#555Male 50+0:17:4314:24:00 1427
BEAUMONT Tyron#503Junior Male0:17:4414:24:00 14314
HOMER Ivan#62340-49 Male0:17:4514:24:00 14419
FEENEY Molly#444Senior Female0:17:4614:24:00 14511
MAIER David#61840-49 Male0:17:4614:24:00 14620
WILLIAMSON David#164Senior Male0:17:4714:24:00 14792
REAY Andrew#199Senior Male0:17:4914:24:00 14893
HAYES Albert#52840-49 Male0:17:4914:24:00 14921
MARSH Ben#239Senior Male0:17:5114:24:00 15094
BROWN Stewart#35Senior Male0:17:5314:24:00 15195
DARK Angela#418Senior Female0:17:5314:24:00 15212
MANTEIT Mark#57540-49 Male0:17:5412:00:00 15322
STOOPMAN Jo#435Senior Female0:17:5512:00:00 15413
SCULLY Chris#57840-49 Male0:17:5612:00:00 15523
CLARKE Will#143Senior Male0:17:5712:00:00 15696
BEHRSIN John#607Male 50+0:17:5712:00:00 1578
SCHNEIDER Raymond#188Senior Male0:17:5812:00:00 15897
MC HENRY Simon#149Senior Male0:17:5812:00:00 15998
CROFT Tonia#445Junior Female0:17:5812:00:00 1604
MORRISON Mark#57040-49 Male0:17:5812:00:00 16124
JUDD Gary#61640-49 Male0:18:0112:00:00 16225
BULL Simon#58Senior Male0:18:0212:00:00 16399
CARROLL Chris#52040-49 Male0:18:0312:00:00 16426
MORRISON Adam#96Senior Male0:18:0512:00:00 165100
HALFPENNY Troy#53Senior Male0:18:079:36:00 166101
HOSKING Scott#216Senior Male0:18:089:36:00 167102
BENNETT Nick#8Senior Male0:18:089:36:00 168103
HOSKING William#215Senior Male0:18:109:36:00 169104
MOSSE Kim#443Senior Female0:18:139:36:00 17014
FETTERPLACE Jonathon#110Senior Male0:18:149:36:00 171105
WOODHOUSE Nigel#104Senior Male0:18:149:36:00 172106
LANGDON Mark#60340-49 Male0:18:149:36:00 17327
HUNTER Katie#390Junior Female0:18:179:36:00 1745
GAUDART Melissa#369Senior Female0:18:189:36:00 17515
MASTERMANN-SMIT Gavin#125Senior Male0:18:199:36:00 176107
THOMPSON David#86Senior Male0:18:207:12:00 177108
DAVIE Jasmine#327Junior Female0:18:207:12:00 1786
DAFF Geoff#557Male 50+0:18:207:12:00 1799
GILLING Paul#57240-49 Male0:18:207:12:00 18028
RUSSELL Jane#431Senior Female0:18:217:12:00 18116
MANNING Simon#57740-49 Male0:18:237:12:00 18229
HAMPTON Steven#90Senior Male0:18:247:12:00 183109
THOM Tarryn#450Junior Female0:18:247:12:00 1847
LATHAM Tony#62440-49 Male0:18:247:12:00 18530
VANDERSTEEN Bevan#198Senior Male0:18:267:12:00 186110
TIPPING Joel#32Senior Male0:18:297:12:00 187111
DAVIE Angie#30740-49 Female0:18:297:12:00 1881
POULTON Andrew#142Senior Male0:18:307:12:00 189112
REID Kathy#334Senior Female0:18:307:12:00 19017
WOODWARD Andrew#64540-49 Male0:18:317:12:00 19131
LEDDIN Peter#62040-49 Male0:18:317:12:00 19232
HORNSBY Tony#183Senior Male0:18:374:48:00 193113
GRANT Samantha#479Senior Female0:18:384:48:00 19418
KISS Pam#41340-49 Female0:18:404:48:00 1952
BURLEE Richard#123Senior Male0:18:434:48:00 196114
FOSTIN Bianca#463Senior Female0:18:434:48:00 19719
HARRISON Hamish#634Junior Male0:18:434:48:00 19815
BATTERS Jason#111Senior Male0:18:444:48:00 199115
JESTER Peita#392Senior Female0:18:464:48:00 20020
RYAN Daniel#74Senior Male0:18:472:24:00 201116
CINCOTTA Matthew#195Senior Male0:18:492:24:00 202117
SMETHURST Damian#65Senior Male0:18:502:24:00 203118
RYAN Shane#76Senior Male0:18:502:24:00 204119
BLUNDELL Adam#153Senior Male0:18:512:24:00 205120
STEINICKE Angus#191Senior Male0:18:532:24:00 206121
WILLIAMS Paul#65340-49 Male0:18:532:24:00 20733
HAMILTON James#660Junior Male0:18:542:24:00 20816
PERKIN Dale#63Senior Male0:18:552:24:00 209122
GRAHAM Robyn#465Senior Female0:18:552:24:00 21021
GORSUCH Scott#93Senior Male0:18:572:24:00 211123
MOUNTER Brent#236Senior Male0:18:592:24:00 212124
MULLER Rodney#25Senior Male0:18:592:24:00 213125
BLAKE Darren#114Senior Male0:19:020:00:00 214126
CORNISH Scott#72Senior Male0:19:020:00:00 215127
HUGHEO Hilary#475Senior Female0:19:020:00:00 21622
O'KEEFE Louise#382Senior Female0:19:030:00:00 21723
SMITH Andrew#36Senior Male0:19:040:00:00 218128
NICHOLSON Peter#642Male 50+0:19:040:00:00 21910
O'SHEA Kelly#499Senior Female0:19:050:00:00 22024
PASTOORS Simon#37Senior Male0:19:060:00:00 221129
D'AQUINO Bianca#200Junior Female0:19:060:00:00 2228
WATER Malanie#442Senior Female0:19:070:00:00 22325
COLLIS Dan#218Senior Male0:19:080:00:00 224130
WILLIAMS Lloyd#224Senior Male0:19:080:00:00 225131
JACKSON Katherine#381Senior Female0:19:080:00:00 22626
SUMMERFIELD Ben#502Junior Male0:19:080:00:00 22717
NOLTON Mandy#372Senior Female0:19:090:00:00 22827
STONE Nick#66Senior Male0:19:100:00:00 229132
FASKEN Ian#43Senior Male0:19:110:00:00 230133
DURKIN Sean#60Senior Male0:19:120:00:00 231134
TUCKER John#190Senior Male0:19:130:00:00 232135
O'DONOHUE Mark#61240-49 Male0:19:130:00:00 23334
HAYNE Rodney#71Senior Male0:19:1721:36:00 234136
FITZGERALD Ben#31Senior Male0:19:1721:36:00 235137
COCKREN Chris#64040-49 Male0:19:1721:36:00 23635
WRIGHT Bruce#58940-49 Male0:19:1721:36:00 23736
O'SHANNESSY Peter#64340-49 Male0:19:1921:36:00 23837
ALLWOOD N#26Senior Male0:19:2021:36:00 239138
LEECH Mark#41Senior Male0:19:2221:36:00 240139
O'CONNOR Gavan#22040-49 Male0:19:2221:36:00 24138
WOODWARD Cloe#446Junior Female0:19:2321:36:00 2429
SHERRARD Philip#126Senior Male0:19:2421:36:00 243140
MULLER Dale#24Senior Male0:19:2521:36:00 244141
THOMPSON Cathryn#376Senior Female0:19:2521:36:00 24528
GILLILAND Kim#358Senior Female0:19:2521:36:00 24629
IRELAND Marnie#330Senior Female0:19:2621:36:00 24730
BURTON Bradley#175Senior Male0:19:2721:36:00 248142
OCKWELL Kris#339Senior Male0:19:2721:36:00 249143
CARTER Dean#544Male 50+0:19:2721:36:00 25011
MANTEIT Alex#576Junior Male0:19:3019:12:00 25118
LEECH Angela#481Senior Female0:19:3119:12:00 25231
ROMANIS Susan#370Senior Female0:19:3319:12:00 25332
GRUMMISCH Mark#134Senior Male0:19:3419:12:00 254144
POTTER Brian#148Senior Male0:19:3519:12:00 255145
DICK Katie#427Senior Female0:19:3519:12:00 25633
O'RYAN Mick#542Male 50+0:19:3519:12:00 25712
PETRUCCI Gina#377Senior Female0:19:3619:12:00 25834
OWENS Harley#635Junior Male0:19:3619:12:00 25919
HOPE Jacqueline#355Senior Female0:19:3719:12:00 26035
TANCHEFF Brian#65040-49 Male0:19:3719:12:00 26139
DURKIN Michael#9740-49 Male0:19:3819:12:00 26240
O'BRIEN Nathaniel#135Senior Male0:19:3919:12:00 263146
FULTON Christian#57Senior Male0:19:4019:12:00 264147
WHITE Fiona#403Senior Female0:19:4019:12:00 26536
KEOGH Peter#168Senior Male0:19:4119:12:00 266148
DURKIN Michael#203Senior Male0:19:4516:48:00 267149
ELLIS Michael#617Male 50+0:19:4516:48:00 26813
STOCKDALE Tom#108Senior Male0:19:4716:48:00 269150
SUNDERLAND Peter#59240-49 Male0:19:4816:48:00 27041
DEANS Ian#554Male 50+0:19:4816:48:00 27114
SLINK Arend#565Male 50+0:19:4916:48:00 27215
ABLETT Zachary#226Senior Male0:19:5116:48:00 273151
DE BRUIJN Clare#400Senior Female0:19:5216:48:00 27437
PUMPA Fiona#394Senior Female0:19:5216:48:00 27538
EVERS Helen#384Senior Female0:19:5316:48:00 27639
RIDDLE Sarah#378Senior Female0:19:5316:48:00 27740
CREAN Peter#559Male 50+0:19:5416:48:00 27816
MACLARAN Lynne#46840-49 Female0:19:5516:48:00 2793
MCCORMACK Neill#62Senior Male0:19:5616:48:00 280152
STANHOPE Peter#100Senior Male0:19:5716:48:00 281153
CAMERON Jane#40940-49 Female0:19:5716:48:00 2824
HOOPER Mick#556Male 50+0:19:5716:48:00 28317
HENDRY George#633Male 50+0:19:5716:48:00 28418
NIENABER Peter#160Senior Male0:19:5816:48:00 285154
IGLESIAS Philip#50Senior Male0:20:0014:24:00 286155
CROSBY Andrew#176Senior Male0:20:0114:24:00 287156
HEFFERNAN Mark#119Senior Male0:20:0214:24:00 288157
BARRITT Desmond#52240-49 Male0:20:0214:24:00 28942
MAY Andrew#27Senior Male0:20:0314:24:00 290158
O'SULLIVAN Janine#333Senior Female0:20:0414:24:00 29141
SKIDMORE Peter#654Male 50+0:20:0414:24:00 29219
MORLEY Adrian#150Senior Male0:20:0514:24:00 293159
HALL Dani#336Senior Female0:20:0514:24:00 29442
PEREZ Fabian#129Senior Male0:20:0614:24:00 295160
MATTHEWS Bob#553Male 50+0:20:0614:24:00 29620
WHITEHOUSE Melanie#429Junior Female0:20:0614:24:00 29710
BURGESS John#172Senior Male0:20:0714:24:00 298161
HARPER Karen#331Senior Female0:20:1014:24:00 29943
JALANDO-ON Rio#174Senior Male0:20:1114:24:00 300162
EVANS Kym#337Senior Female0:20:1214:24:00 30144
GODING Lindsay#242Senior Male0:20:1314:24:00 302163
MEBALDS Ester#414Senior Female0:20:1314:24:00 30345
FETTERPLACE David#563Male 50+0:20:1314:24:00 30421
MANNING John#241Senior Male0:20:1414:24:00 305164
SULLIVAN Chris#79Senior Male0:20:1514:24:00 306165
DODD Jennifer#44040-49 Female0:20:1514:24:00 3075
ANGLIN Tania#351Senior Female0:20:1712:00:00 30846
DWYER Paul#13Senior Male0:20:1812:00:00 309166
AMBREIN Laura#344Senior Female0:20:2012:00:00 31047
KISS Shannyn#412Senior Female0:20:2012:00:00 31148
FITZGERALD Richard#51240-49 Male0:20:2012:00:00 31243
PYMAN Glenn#562Male 50+0:20:2112:00:00 31322
IRVING Jayden#649Junior Male0:20:2312:00:00 31420
EARL Lachlan#652Junior Male0:20:2412:00:00 31521
WEIR Warren#94Male 50+0:20:2512:00:00 31623
SMITH Paul#593Male 50+0:20:2612:00:00 31724
HODGON Cheryl#459Senior Female0:20:2612:00:00 31849
HOPKINS Barry#574Male 50+0:20:2912:00:00 31925
MADDOX Rachael#420Junior Female0:20:3212:00:00 32011
DALLINGER Brian#600Male 50+0:20:3212:00:00 32126
SUND Dale#146Senior Male0:20:339:36:00 322167
MONAHAN Robert#75Senior Male0:20:339:36:00 323168
LEA Trevor#561Male 50+0:20:339:36:00 32427
BEHRE Felicity#385Junior Female0:20:359:36:00 32512
KERR Glenn#53540-49 Male0:20:359:36:00 32644
SPENCER Alyn#353Senior Female0:20:359:36:00 32750
SUMMERFIELD Tara#448Senior Female0:20:359:36:00 32851
PARR Tremain#313Male 50+0:20:379:36:00 32928
COMMERFORD Bianca#391Senior Female0:20:379:36:00 33052
URBANO Steven#212Senior Male0:20:389:36:00 331169
DODDS Janine#428Senior Female0:20:409:36:00 33253
BORN Timothy#52140-49 Male0:20:429:36:00 33345
ROBINSON Keleigh Ja#361Senior Female0:20:449:36:00 33454
PLATT Wayne#115Senior Male0:20:469:36:00 335170
VAN BREEMAN Deanne#346Senior Female0:20:469:36:00 33655
KELLY John#65640-49 Male0:20:469:36:00 33746
MUNNINK Daniel#163Senior Male0:20:479:36:00 338171
WILDES John#50940-49 Male0:20:517:12:00 33947
MACAULAY Jessica#354Senior Female0:20:577:12:00 34056
HENKE David#622Male 50+0:20:577:12:00 34129
RYAN Chris#202Senior Male0:20:597:12:00 342172
KING Adam#39Senior Male0:20:597:12:00 343173
VIRTUE Geoff#101Senior Male0:21:017:12:00 344174
MC COD Tony#60240-49 Male0:21:017:12:00 34548
ANTHONY Michael#2Senior Male0:21:027:12:00 346175
FRANCIS Tony#64640-49 Male0:21:027:12:00 34749
WILLIAMS Ian#53940-49 Male0:21:037:12:00 34850
EMERY Michael#51340-49 Male0:21:047:12:00 34951
HAZELL Greg#166Senior Male0:21:057:12:00 350176
STOCKDALE Adam#106Senior Male0:21:067:12:00 351177
HUNTER Jessi#389Junior Female0:21:067:12:00 35213
DAJINE Allison#47240-49 Female0:21:067:12:00 3536
UNKNOWN1 Xxx1#473Senior Female0:21:074:48:00 35457
RULE Cheryl#48340-49 Female0:21:084:48:00 3557
FOY Rebecca#482Senior Female0:21:094:48:00 35658
COMMERFORD Peter#666Male 50+0:21:114:48:00 35730
TAMBURO Alysha#478Senior Female0:21:114:48:00 35859
MACAULAY Rob#560Male 50+0:21:114:48:00 35931
MC CAFFERTY Liam#238Senior Male0:21:134:48:00 360178
YOUNG Andrew#67Senior Male0:21:214:48:00 361179
WESTWOOD Adrian#207Senior Male0:21:302:24:00 362180
MACKINDER David#185Senior Male0:21:332:24:00 363181
SYMES Susan#30240-49 Female0:21:382:24:00 3648
RABY Georgie#335Senior Female0:21:392:24:00 36560
O'DWYER Marie#349Senior Female0:21:422:24:00 36661
MORRISON Kerry#47040-49 Female0:21:440:00:00 3679
LENZ Christophe#608Male 50+0:21:460:00:00 36832
LLOYD Greg#52Senior Male0:21:470:00:00 369182
PYMAN Sarah#325Junior Female0:21:490:00:00 37014
PROITSIS Michael#73Senior Male0:21:510:00:00 371183
CRAIG Mitchell#210Senior Male0:21:580:00:00 372184
DAVIS Catherine#371Senior Female0:21:580:00:00 37362
FAIRWEATHER Robert#583Junior Male0:21:590:00:00 37422
HEINZE Shelley#416Senior Female0:22:000:00:00 37563
CAMILLE Daven#668Junior Male0:22:000:00:00 37623
HALL Kerri#461Senior Female0:22:000:00:00 37764
MANGER Rosie#342Senior Female0:22:0421:36:00 37865
KNIGHT Jamie#170Senior Male0:22:0521:36:00 379185
CURRIE Brendan#51540-49 Male0:22:0921:36:00 38052
GLENN Ian#579Male 50+0:22:1421:36:00 38133
CHALLINOR Michael#133Senior Male0:22:1521:36:00 382186
PAUL Alastair#629Junior Male0:22:1521:36:00 38324
GOODE Thomas#543Male 50+0:22:1521:36:00 38434
PORTER Michael#62840-49 Male0:22:1821:36:00 38553
CAPLE David#625Male 50+0:22:1921:36:00 38635
CARIAS Joe#606Male 50+0:22:2619:12:00 38736
MOORE Jason#117Senior Male0:22:2819:12:00 388187
CHANDLER Mark#590Senior Male0:22:3119:12:00 389188
DRISCOLL Darren#154Senior Male0:22:3319:12:00 390189
WHEATLEY Stephen#51840-49 Male0:22:3319:12:00 39154
HOSKING Robert#665Male 50+0:22:3619:12:00 39237
IRVING Carole#457Senior Female0:22:3819:12:00 39366
CURRAN Joanne#451Senior Female0:22:4316:48:00 39467
LUCAS Craig#208Senior Male0:22:4716:48:00 395190
FISHER Simon#228Senior Male0:22:4716:48:00 396191
GODLEY Janette#471Female 50+0:22:4716:48:00 3971
JONES Penny#338Senior Female0:22:5016:48:00 39868
MATHIESON Leah#383Senior Female0:22:5116:48:00 39969
EISEN Zac#647Junior Male0:22:5116:48:00 40025
KRISCHUNAS Jaime#452Senior Female0:22:5216:48:00 40170
HOMIR Fabizia#41940-49 Female0:22:5316:48:00 40210
CAMENZULI Maria#30640-49 Female0:22:5316:48:00 40311
SMITH Dennis#636Male 50+0:22:5316:48:00 40438
MCLAUGHLIN Michael#51Senior Male0:22:5416:48:00 405192
WILLIAMSON Sarah#423Senior Female0:22:5416:48:00 40671
JENSEN Cathy#366Senior Female0:22:5716:48:00 40772
ZIMMERMAN Kirrily#357Senior Female0:23:0114:24:00 40873
WARD David#10Senior Male0:23:0214:24:00 409193
JOHNSTONE Brian#63940-49 Male0:23:0414:24:00 41055
FERRARO Julia#462Senior Female0:23:0514:24:00 41174
LINSDALL-EDWARD Catherine#48440-49 Female0:23:0714:24:00 41212
KEADY Richard#627Male 50+0:23:0714:24:00 41339
BURNS Greg#59640-49 Male0:23:0714:24:00 41456
CAPLE Anna#430Senior Female0:23:1014:24:00 41575
WOOLCOCK Suzi#477Senior Female0:23:1114:24:00 41676
JOHNSON Gillian#42540-49 Female0:23:1414:24:00 41713
FRANGALAS Gary#120Senior Male0:23:1614:24:00 418194
DEMPSEY Daren#116Senior Male0:23:1814:24:00 419195
PERRY Anna#345Senior Female0:23:2014:24:00 42077
CONN Simon#67140-49 Male0:23:2412:00:00 42157
MARKOPOULOS George#3Senior Male0:23:2712:00:00 422196
ADKINS Susan#360Senior Female0:23:2912:00:00 42378
GOULD Sue#322Female 50+0:23:2912:00:00 4242
HUNT Terry#598Male 50+0:23:2912:00:00 42540
ASBURY Tamara#329Senior Female0:23:3412:00:00 42679
BATEMAN Katrina#438Senior Female0:23:3512:00:00 42780
QUINN Kevin#66440-49 Male0:23:3712:00:00 42858
BIGGS Cameron#167Senior Male0:23:3812:00:00 429197
O'HARA Cameron#235Senior Male0:23:3812:00:00 430198
BAXTER Virginia#456Senior Female0:23:3912:00:00 43181
MOORE Kellie#485Senior Female0:23:4112:00:00 43282
JUSTER Ian#51940-49 Male0:23:4312:00:00 43359
STEPHENS Michael#124Senior Male0:23:489:36:00 434199
HUNTER Steve#61440-49 Male0:23:499:36:00 43560
SHOOBERT Mark#611Male 50+0:23:519:36:00 43641
STELZER Hermann#89Male 50+0:23:559:36:00 43742
SCHREYER Andrew#85Senior Male0:23:589:36:00 438200
DURKIN Maggie#40440-49 Female0:23:589:36:00 43914
OSBALDERSTON Daniel#156Senior Male0:23:599:36:00 440201
KERR Scott#4Senior Male0:24:049:36:00 441202
CHAPERON Joelle#350Senior Female0:24:059:36:00 44283
EDWARDS Joff#211Senior Male0:24:077:12:00 443203
KERR Bob#545Male 50+0:24:097:12:00 44443
FRANCIS Lucy#460Senior Female0:24:117:12:00 44584
HAYNE Diane#474Senior Female0:24:167:12:00 44685
TIPPING Sally#341Senior Female0:24:237:12:00 44786
KENT Chloe#437Junior Female0:24:237:12:00 44815
SHERRY Roxana#30940-49 Female0:24:287:12:00 44915
CHEONG Lillian#433Senior Female0:24:294:48:00 45087
TIPPING Kim#356Senior Female0:24:314:48:00 45188
FAZIO Elissa#367Senior Female0:24:324:48:00 45289
BOWTELL Kathryn#466Senior Female0:24:344:48:00 45390
TURNER Josh#673Junior Male0:24:384:48:00 45426
SEWELL Jessica#395Junior Female0:24:414:48:00 45516
HANNON Bhavani#39340-49 Female0:24:434:48:00 45616
KEWMING Robyn#320Female 50+0:24:484:48:00 4573
THOMAS Michelle#398Senior Female0:24:514:48:00 45891
COOMBE Neal#619Male 50+0:24:514:48:00 45944
BECROFT Melissa#365Senior Female0:24:552:24:00 46092
UNKNOWN2 Xxx2#421Senior Female0:24:562:24:00 46193
PATERSON Gillian#480Senior Female0:24:592:24:00 46294
ESNOUF John#657Male 50+0:24:592:24:00 46345
ANDERSON Lisa#30540-49 Female0:25:002:24:00 46417
JUSTER Mitchell#504Junior Male0:25:032:24:00 46527
NOLAN Patrick#51640-49 Male0:25:042:24:00 46661
STEWART Scott#670Male 50+0:25:052:24:00 46746
DAVIES Matt#193Senior Male0:25:062:24:00 468204
WRIGHT Melanie#469Junior Female0:25:142:24:00 46917
PIPER Owen#58640-49 Male0:25:142:24:00 47062
DUCKWORTH Ross#46Senior Male0:25:190:00:00 471205
HUNG Pui-Shan#439Senior Female0:25:210:00:00 47295
NEWNHAM Gayle#30440-49 Female0:25:380:00:00 47318
WOOTTEN Steve#48Senior Male0:25:4321:36:00 474206
THOMPSON Libby#386Senior Female0:25:4421:36:00 47596
VAN CUYLENBURG Grant#59740-49 Male0:25:4621:36:00 47663
THOMPSON Jodie#432Senior Female0:25:4821:36:00 47797
BOWTELL Sallie#374Senior Female0:25:5421:36:00 47898
WILLIS Eddy#30140-49 Female0:26:0821:36:00 47919
WHITTAKER Susan#455Senior Male0:26:1519:12:00 480207
HEINZE Leisha#415Senior Female0:26:2119:12:00 48199
SWIFT Sean#53040-49 Male0:26:2119:12:00 48264
MC LEOD Stephanie#407Senior Female0:26:2819:12:00 483100
COULTER Renee#343Senior Female0:26:3519:12:00 484101
WILLIAMSON Michele#312Female 50+0:26:3619:12:00 4854
CHAMBERS Ron#547Male 50+0:26:4216:48:00 48647
WILLIAMS Dwayne#223Senior Male0:26:5316:48:00 487208
TENNANT Helen#422Female 50+0:26:5316:48:00 4885
WOOLCOCK Ruth#434Female 50+0:26:5516:48:00 4896
BURNHAM Robert#551Male 50+0:26:5616:48:00 49048
TALBOT Emma#388Senior Female0:27:1314:24:00 491102
RIORDAN Carman#464Senior Female0:27:2914:24:00 492103
FORRESTER Melanie#359Senior Female0:27:4412:00:00 493104
DALLINGER Kevin#601Male 50+0:27:4612:00:00 49449
WOOD Gordon#599Male 50+0:27:5912:00:00 49550
KNIGHT Stephen#61340-49 Male0:28:0212:00:00 49665
BAYLISS Kevin#54040-49 Male0:28:149:36:00 49766
REEK George#595Male 50+0:28:329:36:00 49851
HERBERT Michael#58440-49 Male0:28:417:12:00 49967
KERR Robert#662Male 50+0:28:427:12:00 50052
BROWN Andrew#58540-49 Male0:29:174:48:00 50168
BLACKWELL Nicole Ann#458Senior Female0:29:204:48:00 502105
DWYER Lauren#449Senior Female0:29:264:48:00 503106
ARMSTRONG Steven#54140-49 Male0:29:344:48:00 50469
HAYNE Sue#321Female 50+0:29:424:48:00 5057
STOKES Janice#405Female 50+0:29:482:24:00 5068
COULSON Ian#566Male 50+0:29:522:24:00 50753
BRISBANE Phillip#5Senior Male0:30:112:24:00 508209
CLANCY Kendra#373Senior Female0:30:172:24:00 509107
COLE Ian#568Male 50+0:30:360:00:00 51054
O'BRIEN Michael#621Male 50+0:30:370:00:00 51155
YATES Sarah#467Senior Female0:31:0121:36:00 512108
KONTOGOURIS Earlene#311Female 50+0:31:2121:36:00 5139
BEWLEY Rikki#310Female 50+0:32:3216:48:00 51410
YOUNG Lynette#453Senior Female0:32:4316:48:00 515109
WYNNE Jason#68Senior Male0:32:5514:24:00 516210
BROWN Glenn#159Senior Male0:33:0914:24:00 517211
HUNT Cheryl#402Female 50+0:33:1114:24:00 51811
ELLETT Jennifer#317Female 50+0:33:1114:24:00 51912
STELMACH Wanda#30340-49 Female0:33:4412:00:00 52020
HALL Jannete#314Female 50+0:40:5016:48:00 52113
WYNNE Sheldon#69Senior Male0:42:3414:24:00 522212